sensor_id;sensor_type;location;lat;lon;timestamp;P1;durP1;ratioP1;P2;durP2;ratioP2
49384;SDS011;36795;45.028;38.968;2023-05-23T00:00:41;18.23;;;6.72;;
49384;SDS011;36795;45.028;38.968;2023-05-23T00:03:27;21.75;;;7.10;;
49384;SDS011;36795;45.028;38.968;2023-05-23T00:06:18;20.37;;;6.97;;
49384;SDS011;36795;45.028;38.968;2023-05-23T00:09:07;22.50;;;7.45;;
49384;SDS011;36795;45.028;38.968;2023-05-23T00:11:53;19.37;;;6.78;;
49384;SDS011;36795;45.028;38.968;2023-05-23T00:14:39;21.33;;;7.18;;
49384;SDS011;36795;45.028;38.968;2023-05-23T00:17:25;19.98;;;6.80;;
49384;SDS011;36795;45.028;38.968;2023-05-23T00:20:11;20.52;;;7.62;;
49384;SDS011;36795;45.028;38.968;2023-05-23T00:22:57;22.52;;;8.00;;
49384;SDS011;36795;45.028;38.968;2023-05-23T00:25:44;22.20;;;7.95;;
49384;SDS011;36795;45.028;38.968;2023-05-23T00:28:36;19.42;;;7.15;;
49384;SDS011;36795;45.028;38.968;2023-05-23T00:31:22;19.80;;;6.72;;
49384;SDS011;36795;45.028;38.968;2023-05-23T00:34:08;21.20;;;6.90;;
49384;SDS011;36795;45.028;38.968;2023-05-23T00:36:55;20.48;;;6.45;;
49384;SDS011;36795;45.028;38.968;2023-05-23T00:39:42;19.75;;;6.72;;
49384;SDS011;36795;45.028;38.968;2023-05-23T00:42:28;20.15;;;6.95;;
49384;SDS011;36795;45.028;38.968;2023-05-23T00:45:16;21.52;;;7.12;;
49384;SDS011;36795;45.028;38.968;2023-05-23T00:48:03;19.50;;;7.07;;
49384;SDS011;36795;45.028;38.968;2023-05-23T00:50:50;19.60;;;6.55;;
49384;SDS011;36795;45.028;38.968;2023-05-23T00:53:37;19.85;;;6.80;;
49384;SDS011;36795;45.028;38.968;2023-05-23T00:56:23;20.50;;;7.18;;
49384;SDS011;36795;45.028;38.968;2023-05-23T00:59:11;20.40;;;6.87;;
49384;SDS011;36795;45.028;38.968;2023-05-23T01:01:57;19.83;;;6.82;;
49384;SDS011;36795;45.028;38.968;2023-05-23T01:04:45;21.75;;;7.50;;
49384;SDS011;36795;45.028;38.968;2023-05-23T01:07:38;17.30;;;6.20;;
49384;SDS011;36795;45.028;38.968;2023-05-23T01:10:26;20.02;;;7.15;;
49384;SDS011;36795;45.028;38.968;2023-05-23T01:13:25;20.05;;;7.18;;
49384;SDS011;36795;45.028;38.968;2023-05-23T01:16:17;21.77;;;7.80;;
49384;SDS011;36795;45.028;38.968;2023-05-23T01:22:22;19.40;;;7.30;;
49384;SDS011;36795;45.028;38.968;2023-05-23T01:28:36;18.83;;;7.12;;
49384;SDS011;36795;45.028;38.968;2023-05-23T01:31:25;20.00;;;7.28;;
49384;SDS011;36795;45.028;38.968;2023-05-23T01:34:14;21.30;;;7.45;;
49384;SDS011;36795;45.028;38.968;2023-05-23T01:37:03;20.73;;;7.62;;
49384;SDS011;36795;45.028;38.968;2023-05-23T01:39:55;21.12;;;8.35;;
49384;SDS011;36795;45.028;38.968;2023-05-23T01:42:40;21.83;;;7.55;;
49384;SDS011;36795;45.028;38.968;2023-05-23T01:45:27;20.50;;;7.45;;
49384;SDS011;36795;45.028;38.968;2023-05-23T01:48:14;20.65;;;7.40;;
49384;SDS011;36795;45.028;38.968;2023-05-23T01:51:01;19.10;;;7.50;;
49384;SDS011;36795;45.028;38.968;2023-05-23T01:53:48;21.70;;;7.65;;
49384;SDS011;36795;45.028;38.968;2023-05-23T01:56:35;18.62;;;6.87;;
49384;SDS011;36795;45.028;38.968;2023-05-23T01:59:21;22.17;;;7.97;;
49384;SDS011;36795;45.028;38.968;2023-05-23T02:02:08;20.67;;;7.60;;
49384;SDS011;36795;45.028;38.968;2023-05-23T02:04:55;20.05;;;7.62;;
49384;SDS011;36795;45.028;38.968;2023-05-23T02:07:42;23.12;;;7.55;;
49384;SDS011;36795;45.028;38.968;2023-05-23T02:10:28;22.27;;;7.80;;
49384;SDS011;36795;45.028;38.968;2023-05-23T02:13:14;23.12;;;7.57;;
49384;SDS011;36795;45.028;38.968;2023-05-23T02:16:01;22.85;;;7.72;;
49384;SDS011;36795;45.028;38.968;2023-05-23T02:18:47;23.67;;;8.70;;
49384;SDS011;36795;45.028;38.968;2023-05-23T02:21:37;18.92;;;7.50;;
49384;SDS011;36795;45.028;38.968;2023-05-23T02:24:23;21.90;;;8.38;;
49384;SDS011;36795;45.028;38.968;2023-05-23T02:27:09;21.77;;;7.90;;
49384;SDS011;36795;45.028;38.968;2023-05-23T02:29:55;19.77;;;7.57;;
49384;SDS011;36795;45.028;38.968;2023-05-23T02:32:41;21.55;;;7.53;;
49384;SDS011;36795;45.028;38.968;2023-05-23T02:35:27;22.55;;;8.18;;
49384;SDS011;36795;45.028;38.968;2023-05-23T02:38:14;20.88;;;7.87;;
49384;SDS011;36795;45.028;38.968;2023-05-23T02:41:00;24.08;;;8.27;;
49384;SDS011;36795;45.028;38.968;2023-05-23T02:43:47;23.58;;;8.05;;
49384;SDS011;36795;45.028;38.968;2023-05-23T02:46:33;22.92;;;8.80;;
49384;SDS011;36795;45.028;38.968;2023-05-23T02:49:22;20.75;;;8.38;;
49384;SDS011;36795;45.028;38.968;2023-05-23T02:52:09;24.00;;;8.43;;
49384;SDS011;36795;45.028;38.968;2023-05-23T02:54:55;22.83;;;8.23;;
49384;SDS011;36795;45.028;38.968;2023-05-23T02:57:42;21.65;;;8.35;;
49384;SDS011;36795;45.028;38.968;2023-05-23T03:00:28;21.50;;;8.88;;
49384;SDS011;36795;45.028;38.968;2023-05-23T03:03:15;20.62;;;7.90;;
49384;SDS011;36795;45.028;38.968;2023-05-23T03:06:02;21.85;;;8.32;;
49384;SDS011;36795;45.028;38.968;2023-05-23T03:08:50;22.55;;;8.32;;
49384;SDS011;36795;45.028;38.968;2023-05-23T03:11:37;22.42;;;8.45;;
49384;SDS011;36795;45.028;38.968;2023-05-23T03:14:24;20.55;;;8.40;;
49384;SDS011;36795;45.028;38.968;2023-05-23T03:17:12;25.33;;;9.52;;
49384;SDS011;36795;45.028;38.968;2023-05-23T03:19:58;22.87;;;8.60;;
49384;SDS011;36795;45.028;38.968;2023-05-23T03:22:44;24.83;;;10.35;;
49384;SDS011;36795;45.028;38.968;2023-05-23T03:25:30;23.55;;;9.98;;
49384;SDS011;36795;45.028;38.968;2023-05-23T03:28:17;21.65;;;9.95;;
49384;SDS011;36795;45.028;38.968;2023-05-23T03:31:03;20.62;;;9.45;;
49384;SDS011;36795;45.028;38.968;2023-05-23T03:33:49;23.12;;;10.38;;
49384;SDS011;36795;45.028;38.968;2023-05-23T03:36:36;21.95;;;9.40;;
49384;SDS011;36795;45.028;38.968;2023-05-23T03:39:24;25.20;;;9.98;;
49384;SDS011;36795;45.028;38.968;2023-05-23T03:42:09;23.52;;;8.55;;
49384;SDS011;36795;45.028;38.968;2023-05-23T03:44:56;21.40;;;10.00;;
49384;SDS011;36795;45.028;38.968;2023-05-23T03:47:42;23.70;;;10.27;;
49384;SDS011;36795;45.028;38.968;2023-05-23T03:50:28;24.45;;;9.57;;
49384;SDS011;36795;45.028;38.968;2023-05-23T03:53:15;24.67;;;10.57;;
49384;SDS011;36795;45.028;38.968;2023-05-23T03:56:01;20.60;;;8.38;;
49384;SDS011;36795;45.028;38.968;2023-05-23T03:58:47;24.55;;;11.02;;
49384;SDS011;36795;45.028;38.968;2023-05-23T04:01:34;25.52;;;12.23;;
49384;SDS011;36795;45.028;38.968;2023-05-23T04:04:20;26.12;;;11.90;;
49384;SDS011;36795;45.028;38.968;2023-05-23T04:07:07;24.92;;;11.18;;
49384;SDS011;36795;45.028;38.968;2023-05-23T04:09:54;27.95;;;13.10;;
49384;SDS011;36795;45.028;38.968;2023-05-23T04:12:40;34.45;;;13.93;;
49384;SDS011;36795;45.028;38.968;2023-05-23T04:15:27;26.80;;;12.32;;
49384;SDS011;36795;45.028;38.968;2023-05-23T04:18:15;26.73;;;12.50;;
49384;SDS011;36795;45.028;38.968;2023-05-23T04:21:05;28.40;;;12.70;;
49384;SDS011;36795;45.028;38.968;2023-05-23T04:23:53;37.33;;;13.75;;
49384;SDS011;36795;45.028;38.968;2023-05-23T04:26:40;29.20;;;13.50;;
49384;SDS011;36795;45.028;38.968;2023-05-23T04:29:26;30.00;;;15.05;;
49384;SDS011;36795;45.028;38.968;2023-05-23T04:32:15;27.98;;;14.73;;
49384;SDS011;36795;45.028;38.968;2023-05-23T04:35:03;28.02;;;14.05;;
49384;SDS011;36795;45.028;38.968;2023-05-23T04:37:56;30.98;;;14.27;;
49384;SDS011;36795;45.028;38.968;2023-05-23T04:40:42;27.50;;;13.95;;
49384;SDS011;36795;45.028;38.968;2023-05-23T04:43:30;32.30;;;14.10;;
49384;SDS011;36795;45.028;38.968;2023-05-23T04:46:19;28.52;;;14.48;;
49384;SDS011;36795;45.028;38.968;2023-05-23T04:49:12;27.10;;;14.55;;
49384;SDS011;36795;45.028;38.968;2023-05-23T04:51:58;28.75;;;14.52;;
49384;SDS011;36795;45.028;38.968;2023-05-23T04:54:45;29.10;;;14.32;;
49384;SDS011;36795;45.028;38.968;2023-05-23T04:57:33;30.92;;;13.35;;
49384;SDS011;36795;45.028;38.968;2023-05-23T05:00:20;25.90;;;13.98;;
49384;SDS011;36795;45.028;38.968;2023-05-23T05:03:06;30.50;;;14.07;;
49384;SDS011;36795;45.028;38.968;2023-05-23T05:05:57;28.73;;;13.32;;
49384;SDS011;36795;45.028;38.968;2023-05-23T05:08:43;26.27;;;14.27;;
49384;SDS011;36795;45.028;38.968;2023-05-23T05:11:30;27.20;;;14.30;;
49384;SDS011;36795;45.028;38.968;2023-05-23T05:14:17;26.05;;;13.55;;
49384;SDS011;36795;45.028;38.968;2023-05-23T05:17:03;26.98;;;14.32;;
49384;SDS011;36795;45.028;38.968;2023-05-23T05:19:51;26.67;;;14.70;;
49384;SDS011;36795;45.028;38.968;2023-05-23T05:22:37;34.40;;;14.73;;
49384;SDS011;36795;45.028;38.968;2023-05-23T05:25:29;26.30;;;13.93;;
49384;SDS011;36795;45.028;38.968;2023-05-23T05:28:20;35.03;;;14.48;;
49384;SDS011;36795;45.028;38.968;2023-05-23T05:31:07;30.20;;;19.83;;
49384;SDS011;36795;45.028;38.968;2023-05-23T05:33:54;25.65;;;13.55;;
49384;SDS011;36795;45.028;38.968;2023-05-23T05:36:40;29.25;;;14.87;;
49384;SDS011;36795;45.028;38.968;2023-05-23T05:39:31;26.67;;;13.90;;
49384;SDS011;36795;45.028;38.968;2023-05-23T05:42:17;26.67;;;13.70;;
49384;SDS011;36795;45.028;38.968;2023-05-23T05:45:03;25.67;;;14.10;;
49384;SDS011;36795;45.028;38.968;2023-05-23T05:47:51;27.08;;;15.15;;
49384;SDS011;36795;45.028;38.968;2023-05-23T05:50:37;26.62;;;14.98;;
49384;SDS011;36795;45.028;38.968;2023-05-23T05:53:24;29.87;;;14.35;;
49384;SDS011;36795;45.028;38.968;2023-05-23T05:56:11;27.50;;;14.75;;
49384;SDS011;36795;45.028;38.968;2023-05-23T05:58:57;27.23;;;13.45;;
49384;SDS011;36795;45.028;38.968;2023-05-23T06:01:44;28.92;;;14.82;;
49384;SDS011;36795;45.028;38.968;2023-05-23T06:04:31;25.30;;;13.27;;
49384;SDS011;36795;45.028;38.968;2023-05-23T06:07:17;28.60;;;14.60;;
49384;SDS011;36795;45.028;38.968;2023-05-23T06:10:04;26.90;;;14.35;;
49384;SDS011;36795;45.028;38.968;2023-05-23T06:12:50;29.85;;;15.43;;
49384;SDS011;36795;45.028;38.968;2023-05-23T06:15:37;33.72;;;16.87;;
49384;SDS011;36795;45.028;38.968;2023-05-23T06:18:23;34.47;;;17.90;;
49384;SDS011;36795;45.028;38.968;2023-05-23T06:21:11;35.50;;;17.67;;
49384;SDS011;36795;45.028;38.968;2023-05-23T06:23:56;32.95;;;17.25;;
49384;SDS011;36795;45.028;38.968;2023-05-23T06:26:43;31.77;;;17.27;;
49384;SDS011;36795;45.028;38.968;2023-05-23T06:29:29;32.60;;;16.60;;
49384;SDS011;36795;45.028;38.968;2023-05-23T06:32:20;29.12;;;15.45;;
49384;SDS011;36795;45.028;38.968;2023-05-23T06:35:06;30.77;;;15.52;;
49384;SDS011;36795;45.028;38.968;2023-05-23T06:37:53;27.00;;;14.30;;
49384;SDS011;36795;45.028;38.968;2023-05-23T06:40:39;28.42;;;16.40;;
49384;SDS011;36795;45.028;38.968;2023-05-23T06:43:27;28.87;;;15.18;;
49384;SDS011;36795;45.028;38.968;2023-05-23T06:46:17;28.60;;;15.15;;
49384;SDS011;36795;45.028;38.968;2023-05-23T06:49:04;27.80;;;14.82;;
49384;SDS011;36795;45.028;38.968;2023-05-23T06:51:51;30.35;;;16.25;;
49384;SDS011;36795;45.028;38.968;2023-05-23T06:54:37;26.92;;;14.07;;
49384;SDS011;36795;45.028;38.968;2023-05-23T06:57:23;28.17;;;14.80;;
49384;SDS011;36795;45.028;38.968;2023-05-23T07:00:09;27.17;;;14.50;;
49384;SDS011;36795;45.028;38.968;2023-05-23T07:02:58;26.60;;;14.70;;
49384;SDS011;36795;45.028;38.968;2023-05-23T07:05:45;27.52;;;15.68;;
49384;SDS011;36795;45.028;38.968;2023-05-23T07:08:33;26.62;;;15.10;;
49384;SDS011;36795;45.028;38.968;2023-05-23T07:11:20;27.83;;;14.57;;
49384;SDS011;36795;45.028;38.968;2023-05-23T07:14:07;30.45;;;16.10;;
49384;SDS011;36795;45.028;38.968;2023-05-23T07:16:54;28.23;;;15.18;;
49384;SDS011;36795;45.028;38.968;2023-05-23T07:19:40;29.80;;;16.17;;
49384;SDS011;36795;45.028;38.968;2023-05-23T07:22:27;29.33;;;16.55;;
49384;SDS011;36795;45.028;38.968;2023-05-23T07:25:14;27.83;;;15.88;;
49384;SDS011;36795;45.028;38.968;2023-05-23T07:28:00;29.40;;;15.90;;
49384;SDS011;36795;45.028;38.968;2023-05-23T07:30:46;28.85;;;16.25;;
49384;SDS011;36795;45.028;38.968;2023-05-23T07:33:33;31.48;;;16.33;;
49384;SDS011;36795;45.028;38.968;2023-05-23T07:36:19;30.37;;;17.90;;
49384;SDS011;36795;45.028;38.968;2023-05-23T07:39:07;32.83;;;18.65;;
49384;SDS011;36795;45.028;38.968;2023-05-23T07:41:53;33.40;;;17.83;;
49384;SDS011;36795;45.028;38.968;2023-05-23T07:44:40;31.05;;;18.58;;
49384;SDS011;36795;45.028;38.968;2023-05-23T07:47:26;36.92;;;19.33;;
49384;SDS011;36795;45.028;38.968;2023-05-23T07:50:13;32.65;;;19.00;;
49384;SDS011;36795;45.028;38.968;2023-05-23T07:52:58;30.62;;;17.42;;
49384;SDS011;36795;45.028;38.968;2023-05-23T07:55:45;29.92;;;17.33;;
49384;SDS011;36795;45.028;38.968;2023-05-23T07:58:32;29.60;;;16.80;;
49384;SDS011;36795;45.028;38.968;2023-05-23T08:01:21;30.95;;;16.25;;
49384;SDS011;36795;45.028;38.968;2023-05-23T08:04:09;30.23;;;17.87;;
49384;SDS011;36795;45.028;38.968;2023-05-23T08:06:55;32.83;;;19.52;;
49384;SDS011;36795;45.028;38.968;2023-05-23T08:09:42;27.98;;;15.85;;
49384;SDS011;36795;45.028;38.968;2023-05-23T08:12:30;26.92;;;15.75;;
49384;SDS011;36795;45.028;38.968;2023-05-23T08:15:17;25.90;;;14.75;;
49384;SDS011;36795;45.028;38.968;2023-05-23T08:18:04;28.30;;;15.45;;
49384;SDS011;36795;45.028;38.968;2023-05-23T08:20:51;27.73;;;14.50;;
49384;SDS011;36795;45.028;38.968;2023-05-23T08:23:37;26.08;;;13.85;;
49384;SDS011;36795;45.028;38.968;2023-05-23T08:26:24;25.55;;;13.57;;
49384;SDS011;36795;45.028;38.968;2023-05-23T08:29:12;27.15;;;14.23;;
49384;SDS011;36795;45.028;38.968;2023-05-23T08:32:00;29.48;;;13.65;;
49384;SDS011;36795;45.028;38.968;2023-05-23T08:34:50;25.60;;;13.77;;
49384;SDS011;36795;45.028;38.968;2023-05-23T08:37:37;25.92;;;13.10;;
49384;SDS011;36795;45.028;38.968;2023-05-23T08:40:24;26.27;;;12.23;;
49384;SDS011;36795;45.028;38.968;2023-05-23T08:43:15;23.42;;;12.02;;
49384;SDS011;36795;45.028;38.968;2023-05-23T08:46:01;26.67;;;11.18;;
49384;SDS011;36795;45.028;38.968;2023-05-23T08:48:53;26.77;;;12.45;;
49384;SDS011;36795;45.028;38.968;2023-05-23T08:51:41;25.52;;;11.65;;
49384;SDS011;36795;45.028;38.968;2023-05-23T08:54:30;23.52;;;11.95;;
49384;SDS011;36795;45.028;38.968;2023-05-23T08:57:16;27.70;;;12.30;;
49384;SDS011;36795;45.028;38.968;2023-05-23T09:00:04;26.35;;;11.35;;
49384;SDS011;36795;45.028;38.968;2023-05-23T09:02:55;25.10;;;12.73;;
49384;SDS011;36795;45.028;38.968;2023-05-23T09:05:46;25.65;;;11.23;;
49384;SDS011;36795;45.028;38.968;2023-05-23T09:08:34;27.02;;;10.25;;
49384;SDS011;36795;45.028;38.968;2023-05-23T09:11:21;23.38;;;9.57;;
49384;SDS011;36795;45.028;38.968;2023-05-23T09:14:09;28.70;;;11.77;;
49384;SDS011;36795;45.028;38.968;2023-05-23T09:16:59;25.60;;;10.77;;
49384;SDS011;36795;45.028;38.968;2023-05-23T09:19:46;21.98;;;10.30;;
49384;SDS011;36795;45.028;38.968;2023-05-23T09:22:34;31.05;;;11.10;;
49384;SDS011;36795;45.028;38.968;2023-05-23T09:25:22;25.70;;;10.80;;
49384;SDS011;36795;45.028;38.968;2023-05-23T09:28:09;22.58;;;9.68;;
49384;SDS011;36795;45.028;38.968;2023-05-23T09:30:58;27.77;;;10.68;;
49384;SDS011;36795;45.028;38.968;2023-05-23T09:33:49;25.77;;;12.18;;
49384;SDS011;36795;45.028;38.968;2023-05-23T09:36:35;28.10;;;12.55;;
49384;SDS011;36795;45.028;38.968;2023-05-23T09:39:25;25.10;;;12.05;;
49384;SDS011;36795;45.028;38.968;2023-05-23T09:42:11;25.45;;;11.00;;
49384;SDS011;36795;45.028;38.968;2023-05-23T09:45:03;25.90;;;10.38;;
49384;SDS011;36795;45.028;38.968;2023-05-23T09:47:50;27.58;;;9.48;;
49384;SDS011;36795;45.028;38.968;2023-05-23T09:50:37;24.92;;;9.65;;
49384;SDS011;36795;45.028;38.968;2023-05-23T09:53:24;26.05;;;9.20;;
49384;SDS011;36795;45.028;38.968;2023-05-23T09:56:10;24.67;;;9.07;;
49384;SDS011;36795;45.028;38.968;2023-05-23T09:58:57;25.00;;;8.48;;
49384;SDS011;36795;45.028;38.968;2023-05-23T10:01:45;26.83;;;8.13;;
49384;SDS011;36795;45.028;38.968;2023-05-23T10:04:33;27.87;;;9.68;;
49384;SDS011;36795;45.028;38.968;2023-05-23T10:07:20;25.33;;;9.10;;
49384;SDS011;36795;45.028;38.968;2023-05-23T10:10:09;25.85;;;9.00;;
49384;SDS011;36795;45.028;38.968;2023-05-23T10:12:57;26.17;;;8.82;;
49384;SDS011;36795;45.028;38.968;2023-05-23T10:15:47;25.33;;;7.93;;
49384;SDS011;36795;45.028;38.968;2023-05-23T10:18:38;23.70;;;6.75;;
49384;SDS011;36795;45.028;38.968;2023-05-23T10:21:29;23.95;;;8.52;;
49384;SDS011;36795;45.028;38.968;2023-05-23T10:24:20;24.27;;;6.87;;
49384;SDS011;36795;45.028;38.968;2023-05-23T10:27:09;23.65;;;6.47;;
49384;SDS011;36795;45.028;38.968;2023-05-23T10:29:56;22.30;;;6.03;;
49384;SDS011;36795;45.028;38.968;2023-05-23T10:32:46;20.77;;;6.20;;
49384;SDS011;36795;45.028;38.968;2023-05-23T10:35:49;23.20;;;6.70;;
49384;SDS011;36795;45.028;38.968;2023-05-23T10:38:50;20.12;;;7.28;;
49384;SDS011;36795;45.028;38.968;2023-05-23T10:41:48;20.98;;;6.05;;
49384;SDS011;36795;45.028;38.968;2023-05-23T10:44:40;24.98;;;6.87;;
49384;SDS011;36795;45.028;38.968;2023-05-23T10:47:26;22.73;;;6.53;;
49384;SDS011;36795;45.028;38.968;2023-05-23T10:50:14;21.37;;;6.68;;
49384;SDS011;36795;45.028;38.968;2023-05-23T10:53:17;20.52;;;5.05;;
49384;SDS011;36795;45.028;38.968;2023-05-23T10:56:04;22.10;;;5.07;;
49384;SDS011;36795;45.028;38.968;2023-05-23T10:58:55;23.05;;;5.80;;
49384;SDS011;36795;45.028;38.968;2023-05-23T11:01:43;23.02;;;5.18;;
49384;SDS011;36795;45.028;38.968;2023-05-23T11:04:29;22.45;;;6.37;;
49384;SDS011;36795;45.028;38.968;2023-05-23T11:07:28;23.30;;;5.25;;
49384;SDS011;36795;45.028;38.968;2023-05-23T11:10:15;19.55;;;4.70;;
49384;SDS011;36795;45.028;38.968;2023-05-23T11:13:06;21.77;;;5.40;;
49384;SDS011;36795;45.028;38.968;2023-05-23T11:15:52;23.23;;;6.65;;
49384;SDS011;36795;45.028;38.968;2023-05-23T11:18:39;20.40;;;6.47;;
49384;SDS011;36795;45.028;38.968;2023-05-23T11:21:25;25.05;;;5.30;;
49384;SDS011;36795;45.028;38.968;2023-05-23T11:24:16;24.52;;;4.95;;
49384;SDS011;36795;45.028;38.968;2023-05-23T11:27:02;24.25;;;4.80;;
49384;SDS011;36795;45.028;38.968;2023-05-23T11:30:02;26.90;;;5.55;;
49384;SDS011;36795;45.028;38.968;2023-05-23T11:32:58;26.65;;;7.80;;
49384;SDS011;36795;45.028;38.968;2023-05-23T11:35:45;21.25;;;5.00;;
49384;SDS011;36795;45.028;38.968;2023-05-23T11:38:33;21.27;;;4.57;;
49384;SDS011;36795;45.028;38.968;2023-05-23T11:41:19;20.10;;;4.55;;
49384;SDS011;36795;45.028;38.968;2023-05-23T11:44:12;22.05;;;5.10;;
49384;SDS011;36795;45.028;38.968;2023-05-23T11:47:03;18.58;;;4.72;;
49384;SDS011;36795;45.028;38.968;2023-05-23T11:49:50;22.42;;;5.28;;
49384;SDS011;36795;45.028;38.968;2023-05-23T11:52:37;19.15;;;4.65;;
49384;SDS011;36795;45.028;38.968;2023-05-23T11:55:23;21.33;;;6.12;;
49384;SDS011;36795;45.028;38.968;2023-05-23T11:58:09;18.45;;;5.32;;
49384;SDS011;36795;45.028;38.968;2023-05-23T12:01:03;20.70;;;5.43;;
49384;SDS011;36795;45.028;38.968;2023-05-23T12:03:53;25.52;;;6.43;;
49384;SDS011;36795;45.028;38.968;2023-05-23T12:06:45;22.45;;;5.60;;
49384;SDS011;36795;45.028;38.968;2023-05-23T12:09:43;19.70;;;5.10;;
49384;SDS011;36795;45.028;38.968;2023-05-23T12:12:33;21.60;;;4.65;;
49384;SDS011;36795;45.028;38.968;2023-05-23T12:15:23;21.77;;;5.47;;
49384;SDS011;36795;45.028;38.968;2023-05-23T12:18:11;21.75;;;5.43;;
49384;SDS011;36795;45.028;38.968;2023-05-23T12:21:02;18.90;;;4.70;;
49384;SDS011;36795;45.028;38.968;2023-05-23T12:23:52;21.83;;;5.50;;
49384;SDS011;36795;45.028;38.968;2023-05-23T12:26:45;22.20;;;5.37;;
49384;SDS011;36795;45.028;38.968;2023-05-23T12:29:32;21.62;;;5.10;;
49384;SDS011;36795;45.028;38.968;2023-05-23T12:32:20;24.45;;;5.65;;
49384;SDS011;36795;45.028;38.968;2023-05-23T12:35:16;20.88;;;5.25;;
49384;SDS011;36795;45.028;38.968;2023-05-23T12:38:07;23.02;;;5.15;;
49384;SDS011;36795;45.028;38.968;2023-05-23T12:41:07;19.30;;;5.22;;
49384;SDS011;36795;45.028;38.968;2023-05-23T12:43:57;22.75;;;5.32;;
49384;SDS011;36795;45.028;38.968;2023-05-23T12:46:43;21.05;;;5.30;;
49384;SDS011;36795;45.028;38.968;2023-05-23T12:49:30;20.40;;;5.28;;
49384;SDS011;36795;45.028;38.968;2023-05-23T12:52:16;21.37;;;5.53;;
49384;SDS011;36795;45.028;38.968;2023-05-23T12:55:03;19.92;;;5.05;;
49384;SDS011;36795;45.028;38.968;2023-05-23T12:57:50;22.40;;;5.25;;
49384;SDS011;36795;45.028;38.968;2023-05-23T13:00:36;21.77;;;5.15;;
49384;SDS011;36795;45.028;38.968;2023-05-23T13:03:23;20.52;;;5.10;;
49384;SDS011;36795;45.028;38.968;2023-05-23T13:06:09;22.40;;;5.07;;
49384;SDS011;36795;45.028;38.968;2023-05-23T13:08:55;19.75;;;5.22;;
49384;SDS011;36795;45.028;38.968;2023-05-23T13:11:42;17.95;;;4.87;;
49384;SDS011;36795;45.028;38.968;2023-05-23T13:14:28;21.40;;;5.37;;
49384;SDS011;36795;45.028;38.968;2023-05-23T13:17:14;16.65;;;4.43;;
49384;SDS011;36795;45.028;38.968;2023-05-23T13:20:00;21.08;;;5.28;;
49384;SDS011;36795;45.028;38.968;2023-05-23T13:22:49;22.23;;;5.10;;
49384;SDS011;36795;45.028;38.968;2023-05-23T13:25:35;23.12;;;4.72;;
49384;SDS011;36795;45.028;38.968;2023-05-23T13:28:21;21.37;;;4.90;;
49384;SDS011;36795;45.028;38.968;2023-05-23T13:31:08;22.45;;;4.80;;
49384;SDS011;36795;45.028;38.968;2023-05-23T13:33:55;18.40;;;5.05;;
49384;SDS011;36795;45.028;38.968;2023-05-23T13:36:40;20.77;;;4.70;;
49384;SDS011;36795;45.028;38.968;2023-05-23T13:39:27;24.15;;;4.90;;
49384;SDS011;36795;45.028;38.968;2023-05-23T13:42:24;23.12;;;4.95;;
49384;SDS011;36795;45.028;38.968;2023-05-23T13:45:11;25.33;;;6.20;;
49384;SDS011;36795;45.028;38.968;2023-05-23T13:47:57;18.45;;;4.65;;
49384;SDS011;36795;45.028;38.968;2023-05-23T13:50:43;20.20;;;5.20;;
49384;SDS011;36795;45.028;38.968;2023-05-23T13:53:29;23.08;;;5.45;;
49384;SDS011;36795;45.028;38.968;2023-05-23T13:56:16;21.00;;;5.12;;
49384;SDS011;36795;45.028;38.968;2023-05-23T13:59:03;20.17;;;4.68;;
49384;SDS011;36795;45.028;38.968;2023-05-23T14:01:53;28.38;;;4.78;;
49384;SDS011;36795;45.028;38.968;2023-05-23T14:04:39;20.05;;;4.50;;
49384;SDS011;36795;45.028;38.968;2023-05-23T14:07:25;19.65;;;4.55;;
49384;SDS011;36795;45.028;38.968;2023-05-23T14:10:13;21.42;;;4.80;;
49384;SDS011;36795;45.028;38.968;2023-05-23T14:12:59;27.20;;;6.62;;
49384;SDS011;36795;45.028;38.968;2023-05-23T14:15:46;22.58;;;4.78;;
49384;SDS011;36795;45.028;38.968;2023-05-23T14:18:36;27.25;;;5.20;;
49384;SDS011;36795;45.028;38.968;2023-05-23T14:21:22;26.15;;;7.80;;
49384;SDS011;36795;45.028;38.968;2023-05-23T14:24:08;27.42;;;6.32;;
49384;SDS011;36795;45.028;38.968;2023-05-23T14:26:54;21.58;;;4.85;;
49384;SDS011;36795;45.028;38.968;2023-05-23T14:29:42;24.27;;;5.07;;
49384;SDS011;36795;45.028;38.968;2023-05-23T14:32:31;21.52;;;4.87;;
49384;SDS011;36795;45.028;38.968;2023-05-23T14:35:22;24.75;;;4.87;;
49384;SDS011;36795;45.028;38.968;2023-05-23T14:38:09;24.30;;;5.00;;
49384;SDS011;36795;45.028;38.968;2023-05-23T14:40:55;25.60;;;6.72;;
49384;SDS011;36795;45.028;38.968;2023-05-23T14:43:43;21.30;;;5.07;;
49384;SDS011;36795;45.028;38.968;2023-05-23T14:46:29;23.65;;;5.50;;
49384;SDS011;36795;45.028;38.968;2023-05-23T14:49:18;30.10;;;5.50;;
49384;SDS011;36795;45.028;38.968;2023-05-23T14:52:04;18.90;;;4.47;;
49384;SDS011;36795;45.028;38.968;2023-05-23T14:54:51;22.05;;;4.47;;
49384;SDS011;36795;45.028;38.968;2023-05-23T14:57:37;18.73;;;4.75;;
49384;SDS011;36795;45.028;38.968;2023-05-23T15:00:24;22.25;;;5.80;;
49384;SDS011;36795;45.028;38.968;2023-05-23T15:03:13;19.45;;;4.93;;
49384;SDS011;36795;45.028;38.968;2023-05-23T15:06:00;24.65;;;4.65;;
49384;SDS011;36795;45.028;38.968;2023-05-23T15:08:46;25.60;;;5.45;;
49384;SDS011;36795;45.028;38.968;2023-05-23T15:11:35;24.92;;;5.00;;
49384;SDS011;36795;45.028;38.968;2023-05-23T15:14:22;21.12;;;4.80;;
49384;SDS011;36795;45.028;38.968;2023-05-23T15:17:13;22.50;;;5.20;;
49384;SDS011;36795;45.028;38.968;2023-05-23T15:20:03;20.02;;;4.87;;
49384;SDS011;36795;45.028;38.968;2023-05-23T15:22:51;21.27;;;4.78;;
49384;SDS011;36795;45.028;38.968;2023-05-23T15:25:37;23.45;;;4.93;;
49384;SDS011;36795;45.028;38.968;2023-05-23T15:28:23;19.30;;;4.47;;
49384;SDS011;36795;45.028;38.968;2023-05-23T15:31:09;17.50;;;4.40;;
49384;SDS011;36795;45.028;38.968;2023-05-23T15:33:56;20.30;;;4.90;;
49384;SDS011;36795;45.028;38.968;2023-05-23T15:36:41;20.45;;;4.45;;
49384;SDS011;36795;45.028;38.968;2023-05-23T15:39:28;20.55;;;4.93;;
49384;SDS011;36795;45.028;38.968;2023-05-23T15:42:14;19.70;;;4.35;;
49384;SDS011;36795;45.028;38.968;2023-05-23T15:45:01;26.23;;;4.90;;
49384;SDS011;36795;45.028;38.968;2023-05-23T15:47:50;29.83;;;5.97;;
49384;SDS011;36795;45.028;38.968;2023-05-23T15:50:38;16.90;;;4.60;;
49384;SDS011;36795;45.028;38.968;2023-05-23T15:53:23;25.15;;;5.10;;
49384;SDS011;36795;45.028;38.968;2023-05-23T15:56:10;20.77;;;4.50;;
49384;SDS011;36795;45.028;38.968;2023-05-23T15:58:56;25.45;;;5.18;;
49384;SDS011;36795;45.028;38.968;2023-05-23T16:01:43;18.25;;;5.12;;
49384;SDS011;36795;45.028;38.968;2023-05-23T16:04:29;21.65;;;6.15;;
49384;SDS011;36795;45.028;38.968;2023-05-23T16:07:16;22.45;;;5.12;;
49384;SDS011;36795;45.028;38.968;2023-05-23T16:10:03;25.52;;;5.53;;
49384;SDS011;36795;45.028;38.968;2023-05-23T16:12:50;23.60;;;7.78;;
49384;SDS011;36795;45.028;38.968;2023-05-23T16:15:58;20.62;;;5.93;;
49384;SDS011;36795;45.028;38.968;2023-05-23T16:18:47;24.95;;;5.80;;
49384;SDS011;36795;45.028;38.968;2023-05-23T16:21:33;18.17;;;4.93;;